Wilmington, OH

10:06 AM EDT on April 01, 2015 (GMT -0400)
Springfield-Beckley Municipal | | Change Station
CLOSE
Current Station
Airport
Location: Springfield,
Elevation: 1050 ft
Nearby Weather Stations

Elev 1050 ft 39.84 °N, 83.84 °W | Updated 10 minutes ago

Clear
Clear
42 °F
Feels Like 38 °F
N
7
Wind Variable Wind from SW

Today
High -- | Low -- °F
--% Chance of Precip.
Yesterday
High -- | Low -- °F
Precip. -- in
7:20 AM 7:59 PM
Waxing Gibbous, 92% visible
Pressure 30.17 in
Visibility 6.0 miles
Clouds
Windchill 38 °F
Dew Point 36 °F
Humidity 79%
Rainfall 0.00 in
Snow Depth Not available.
UV Not available.
Pollen 10.90 out of 12
Air Quality Not available.
Flu Activity Not available.
METAR KSGH 011356Z AUTO 22006KT 6SM HZ 06/02 A3014 RMK AO2 T00550022 SLP214 $

More Conditions Fewer Conditions

Pressure 30.17 in
Visibility 6.0 miles
Clouds
Windchill 38 °F
Dew Point 36 °F
Humidity 79%
Rainfall 0.00 in
Snow Depth Not available.
UV Not available.
Pollen 10.90 out of 12
Air Quality Not available.
Flu Activity Not available.
METAR KSGH 011356Z AUTO 22006KT 6SM HZ 06/02 A3014 RMK AO2 T00550022 SLP214 $

More Conditions Fewer Conditions

10-Day Weather Forecast

Almanac

Astronomy

Apr. 01, 2015 Rise Set
Actual Time
Civil Twilight
Nautical Twilight
Astronomical Twilight
Moon
Length of Visible Light
Length of Day
Tomorrow will be .
, % of the Moon is Illuminated

Today's Extremes

State Highs State Lows

Community

WunderPhotos

Upload Photos

1,809,959 photos uploaded!

WunderBlogs® & News

Nearby

Air Quality

  Air Quality AQ Index Pollutant
Not available.

Snow Depth

Station Depth Elevation

Earthquake Activity

City Distance Mag. Time & Date
Minimum magnitude displayed is 2.5.

Coastal Water Temperatures

Place Temperature

Stations

Nearby Weather Stations

Station Location Temp. Windchill Dew Point Humidity Wind Precip. Elev Updated Type